Terminal Aerodrome Forecast
Issued by NWS

Home | Current Version | Previous Version | Text Only | Print | Product List | Glossary On
Versions: 1 2 3 4 5 6 7 8 9 10 11 12 13 14 15 16 17 18
000
FTUS44 KMAF 311100
TAFPEQ
TAF
KPEQ 311121Z 3112/0112 34011KT P6SM SCT030 BKN130
      TEMPO 3112/3115 BKN020
     FM311600 01010KT P6SM SCT050 BKN130=

USA.gov is the U.S. government's official web portal to all federal, state and local government web resources and services.